createdAt,value
2022-11-16T06:19:08.012Z,57.81
2022-11-16T06:22:02.816Z,56.00
2022-11-16T06:24:50.812Z,55.47
2022-11-16T06:27:25.955Z,55.39
2022-11-16T06:30:14.814Z,56.07
2022-11-16T06:32:56.792Z,57.53
2022-11-16T06:35:51.808Z,58.40
2022-11-16T06:38:39.799Z,59.58
2022-11-16T06:41:14.957Z,60.58
2022-11-16T06:44:02.811Z,61.53
2022-11-16T06:46:37.953Z,62.12
2022-11-16T06:49:25.809Z,73.90
2022-11-16T06:52:00.935Z,77.10
2022-11-16T06:54:48.815Z,66.39
2022-11-16T06:57:23.935Z,57.85
2022-11-16T07:00:11.807Z,53.22
2022-11-16T07:02:46.944Z,54.12
2022-11-16T07:05:34.797Z,55.79
2022-11-16T07:08:10.017Z,57.43
2022-11-16T07:11:02.957Z,59.02
2022-11-16T07:13:40.963Z,59.84
2022-11-16T07:16:35.997Z,60.50
2022-11-16T07:19:18.415Z,61.66
2022-11-16T07:22:08.006Z,73.25
2022-11-16T07:24:49.992Z,72.18
2022-11-16T07:27:30.947Z,60.28
2022-11-16T07:30:19.797Z,54.23
2022-11-16T07:32:53.948Z,53.68
2022-11-16T07:35:41.792Z,54.95
2022-11-16T07:38:22.980Z,56.60
2022-11-16T07:41:11.824Z,58.71
2022-11-16T07:43:53.457Z,59.58
2022-11-16T07:46:50.011Z,61.12
2022-11-16T07:49:37.014Z,82.03
2022-11-16T07:52:17.808Z,74.12
2022-11-16T07:55:05.807Z,67.27
2022-11-16T07:57:40.212Z,57.62
2022-11-16T08:00:27.806Z,51.27
2022-11-16T08:03:02.217Z,51.16
2022-11-16T08:05:51.817Z,51.41
2022-11-16T08:08:29.504Z,51.46
2022-11-16T08:11:20.778Z,52.61
2022-11-16T08:14:02.813Z,51.49
2022-11-16T08:16:50.784Z,52.59
2022-11-16T08:19:32.226Z,53.17
2022-11-16T08:22:19.813Z,54.12
2022-11-16T08:24:54.240Z,53.79
2022-11-16T08:27:43.854Z,54.50
2022-11-16T08:30:24.781Z,54.44
2022-11-16T08:33:05.939Z,55.12
2022-11-16T08:35:46.786Z,54.80
2022-11-16T08:38:35.890Z,54.85
2022-11-16T08:41:10.362Z,55.12
2022-11-16T08:43:57.886Z,56.07
2022-11-16T08:46:32.240Z,56.20
2022-11-16T08:49:20.776Z,58.07
2022-11-16T08:52:01.798Z,58.01
2022-11-16T08:54:49.782Z,58.21
2022-11-16T08:57:24.244Z,59.82
2022-11-16T09:00:12.008Z,60.27
2022-11-16T09:02:53.858Z,60.42
2022-11-16T09:05:34.953Z,59.52
2022-11-16T09:08:18.811Z,59.32
2022-11-16T09:11:01.941Z,59.21
2022-11-16T09:13:42.789Z,59.62
2022-11-16T09:16:34.792Z,59.99
2022-11-16T09:19:29.991Z,59.97
2022-11-16T09:22:12.812Z,59.29
2022-11-16T09:25:01.786Z,59.16
2022-11-16T09:27:42.794Z,59.85
2022-11-16T09:30:24.031Z,59.13
2022-11-16T09:33:05.829Z,60.95
2022-11-16T09:35:48.789Z,59.85
2022-11-16T09:39:03.330Z,59.73
2022-11-16T09:41:51.948Z,60.16
2022-11-16T09:44:52.046Z,60.59
2022-11-16T09:47:37.773Z,61.16
2022-11-16T09:50:58.104Z,61.71
2022-11-16T09:53:54.828Z,77.79
2022-11-16T09:56:38.790Z,76.31
2022-11-16T09:59:49.980Z,68.26
2022-11-16T10:02:42.266Z,56.79
2022-11-16T10:05:37.790Z,51.48
2022-11-16T10:08:27.031Z,52.06
2022-11-16T10:11:40.789Z,53.57
2022-11-16T10:14:21.078Z,54.76
2022-11-16T10:17:17.982Z,56.60
2022-11-16T10:20:05.762Z,58.26
2022-11-16T10:22:47.793Z,59.17
2022-11-16T10:25:41.531Z,59.70
2022-11-16T10:29:03.788Z,60.43
2022-11-16T10:32:10.770Z,75.16
2022-11-16T10:35:02.805Z,72.34
2022-11-16T10:37:38.938Z,65.70
2022-11-16T10:40:28.771Z,55.77
2022-11-16T10:43:19.164Z,51.05
2022-11-16T10:46:31.771Z,51.62
2022-11-16T10:49:28.704Z,53.44
2022-11-16T10:52:17.764Z,55.36
2022-11-16T10:54:58.786Z,56.57
2022-11-16T10:58:09.776Z,58.34
2022-11-16T11:00:59.010Z,58.09
2022-11-16T11:03:38.920Z,59.94
2022-11-16T11:06:29.764Z,71.72
2022-11-16T11:09:43.472Z,67.88
2022-11-16T11:12:45.770Z,55.93
2022-11-16T11:15:31.940Z,50.37
2022-11-16T11:18:41.753Z,50.97
2022-11-16T11:21:25.764Z,52.49
2022-11-16T11:24:42.796Z,52.91
2022-11-16T11:27:30.789Z,53.04
2022-11-16T11:30:13.142Z,53.80
2022-11-16T11:32:56.415Z,54.42
2022-11-16T11:35:46.775Z,55.32
2022-11-16T16:08:12.503Z,50.92
2022-11-16T16:11:27.008Z,48.87
2022-11-16T16:14:20.537Z,48.76
2022-11-16T16:17:09.715Z,49.00
2022-11-16T16:19:56.553Z,48.97
2022-11-16T16:22:51.889Z,49.41
2022-11-16T16:25:44.700Z,50.11
2022-11-16T16:28:22.809Z,50.64
2022-11-16T16:31:10.818Z,50.83
2022-11-16T16:33:46.078Z,52.16
2022-11-16T16:36:36.825Z,52.80
2022-11-16T16:39:12.116Z,52.48
2022-11-16T16:42:01.713Z,53.07
2022-11-16T16:44:43.636Z,53.76
2022-11-16T16:47:28.494Z,54.21
2022-11-16T16:50:10.841Z,54.19
2022-11-16T16:52:53.699Z,54.65
2022-11-16T16:55:37.784Z,54.56
2022-11-16T16:58:20.632Z,55.12
2022-11-16T17:01:01.871Z,54.83
2022-11-16T17:03:43.694Z,60.67
2022-11-16T17:06:32.686Z,76.55
2022-11-16T17:09:29.712Z,79.20
2022-11-16T17:12:18.513Z,63.23
2022-11-16T17:14:53.657Z,47.70
2022-11-16T17:17:43.498Z,44.99
2022-11-16T17:20:18.663Z,45.90
2022-11-16T17:23:06.658Z,47.20
2022-11-16T17:25:44.643Z,49.04
2022-11-16T17:28:32.747Z,49.47
2022-11-16T17:31:12.727Z,51.08
2022-11-16T17:34:00.507Z,52.47
2022-11-16T17:36:42.588Z,53.66
2022-11-16T17:39:31.541Z,55.10
2022-11-16T17:42:12.727Z,55.46
2022-11-16T17:44:56.494Z,56.65
2022-11-16T17:47:40.739Z,58.18
2022-11-16T17:50:22.451Z,59.63
2022-11-16T17:53:10.538Z,59.95
2022-11-16T17:55:45.931Z,61.16
2022-11-16T17:58:33.503Z,61.46
2022-11-16T18:01:18.586Z,66.64
2022-11-16T18:03:59.590Z,66.71
2022-11-16T18:06:43.496Z,63.79
2022-11-16T18:09:25.728Z,52.53
2022-11-16T18:12:07.501Z,50.09
2022-11-16T18:15:26.416Z,52.09
2022-11-16T18:17:56.035Z,53.63
2022-11-16T18:20:45.530Z,55.89
2022-11-16T18:23:27.673Z,56.34
2022-11-16T18:26:08.707Z,60.38
2022-11-16T18:28:55.496Z,60.24
2022-11-16T18:31:36.639Z,59.99
2022-11-16T18:34:26.763Z,61.14
2022-11-16T18:37:12.078Z,63.84
2022-11-16T18:39:57.043Z,71.71
2022-11-16T18:42:37.657Z,66.15
2022-11-16T18:45:18.605Z,55.14
2022-11-16T18:48:03.642Z,50.72
